<?xml version='1.0' encoding='UTF-8'?>
<gpx xmlns="http://www.topografix.com/GPX/1/1" creator="www.balnam.be" version="1.1" xmlns:xsi="http://www.w3.org/2001/XMLSchema-instance" xsi:schemaLocation="http://www.topografix.com/GPX/1/1 http://www.topografix.com/GPX/1/1/gpx.xsd">
<trk>
<name>hfcvg5</name>
<cmt>q</cmt>
<desc>Vergnies Chemin n°5 Rue Vigneron</desc>
<link href="https://chemins.be/vergnies/chemin/5"/><trkseg>
<trkpt lat="50.179479" lon="4.331240"><time>2026-05-02T18:06:35Z</time></trkpt>
<trkpt lat="50.180763" lon="4.328588"><time>2026-05-02T18:16:35Z</time></trkpt>
</trkseg></trk>
<trk>
<name>hfcvg5</name>
<cmt>v</cmt>
<desc>Vergnies Chemin n°5 Rue Vigneron</desc>
<link href="https://chemins.be/vergnies/chemin/5"/><trkseg>
<trkpt lat="50.180763" lon="4.328588"><time>2026-05-02T18:16:35Z</time></trkpt>
<trkpt lat="50.181050" lon="4.323824"><time>2026-05-02T18:26:35Z</time></trkpt>
<trkpt lat="50.181500" lon="4.322686"><time>2026-05-02T18:36:35Z</time></trkpt>
<trkpt lat="50.181960" lon="4.322194"><time>2026-05-02T18:46:35Z</time></trkpt>
<trkpt lat="50.182100" lon="4.321864"><time>2026-05-02T18:56:35Z</time></trkpt>
<trkpt lat="50.182720" lon="4.321334"><time>2026-05-02T19:06:35Z</time></trkpt>
<trkpt lat="50.185010" lon="4.317553"><time>2026-05-02T19:16:35Z</time></trkpt>
<trkpt lat="50.189891" lon="4.314503"><time>2026-05-02T19:26:35Z</time></trkpt>
<trkpt lat="50.190685" lon="4.314551"><time>2026-05-02T19:36:35Z</time></trkpt>
</trkseg></trk>
<trk>
<name>hfcvg5</name>
<cmt>r</cmt>
<desc>Vergnies Chemin n°5 Rue Vigneron</desc>
<link href="https://chemins.be/vergnies/chemin/5"/><trkseg>
<trkpt lat="50.190685" lon="4.314551"><time>2026-05-02T19:36:35Z</time></trkpt>
<trkpt lat="50.193500" lon="4.308493"><time>2026-05-02T19:46:35Z</time></trkpt>
<trkpt lat="50.194750" lon="4.307653"><time>2026-05-02T19:56:35Z</time></trkpt>
<trkpt lat="50.195930" lon="4.305713"><time>2026-05-02T20:06:35Z</time></trkpt>
<trkpt lat="50.196820" lon="4.304923"><time>2026-05-02T20:16:35Z</time></trkpt>
</trkseg></trk>
<trk>
<name>hfcvg5</name>
<cmt>s</cmt>
<desc>Vergnies Chemin n°5 Rue Vigneron</desc>
<link href="https://chemins.be/vergnies/chemin/5"/><trkseg>
<trkpt lat="50.196820" lon="4.304923"><time>2026-05-02T20:16:35Z</time></trkpt>
<trkpt lat="50.196820" lon="4.304933"><time>2026-05-02T20:26:35Z</time></trkpt>
<trkpt lat="50.196810" lon="4.304913"><time>2026-05-02T20:36:35Z</time></trkpt>
<trkpt lat="50.197040" lon="4.304513"><time>2026-05-02T20:46:35Z</time></trkpt>
<trkpt lat="50.197330" lon="4.304303"><time>2026-05-02T20:56:35Z</time></trkpt>
<trkpt lat="50.197546" lon="4.304471"><time>2026-05-02T21:06:35Z</time></trkpt>
<trkpt lat="50.197580" lon="4.304683"><time>2026-05-02T21:16:35Z</time></trkpt>
<trkpt lat="50.197710" lon="4.304923"><time>2026-05-02T21:26:35Z</time></trkpt>
</trkseg></trk>
<trk>
<name>hfcvg5</name>
<cmt>r</cmt>
<desc>Vergnies Chemin n°5 Rue Vigneron</desc>
<link href="https://chemins.be/vergnies/chemin/5"/><trkseg>
<trkpt lat="50.197710" lon="4.304923"><time>2026-05-02T21:26:35Z</time></trkpt>
<trkpt lat="50.197720" lon="4.304923"><time>2026-05-02T21:36:35Z</time></trkpt>
<trkpt lat="50.197720" lon="4.304933"><time>2026-05-02T21:46:35Z</time></trkpt>
<trkpt lat="50.198260" lon="4.304973"><time>2026-05-02T21:56:35Z</time></trkpt>
<trkpt lat="50.199000" lon="4.305143"><time>2026-05-02T22:06:35Z</time></trkpt>
</trkseg>
</trk>
</gpx>